createdAt,value
2019-05-30T00:00:37.301Z,3.47
2019-05-30T00:03:05.944Z,4.53
2019-05-30T00:05:34.415Z,3.67
2019-05-30T00:08:03.041Z,4.72
2019-05-30T00:10:31.628Z,3.47
2019-05-30T00:13:00.720Z,2.85
2019-05-30T00:15:29.260Z,3.62
2019-05-30T00:17:58.636Z,2.00
2019-05-30T00:20:27.206Z,2.90
2019-05-30T00:22:56.660Z,4.05
2019-05-30T00:25:25.650Z,3.52
2019-05-30T00:27:55.061Z,2.30
2019-05-30T00:30:24.985Z,4.15
2019-05-30T00:32:53.786Z,2.22
2019-05-30T00:35:22.309Z,3.15
2019-05-30T00:37:50.831Z,2.98
2019-05-30T00:40:19.338Z,3.37
2019-05-30T00:42:47.876Z,2.15
2019-05-30T00:45:20.732Z,3.67
2019-05-30T00:47:46.750Z,3.02
2019-05-30T00:50:15.299Z,12.70
2019-05-30T00:52:43.835Z,3.62
2019-05-30T00:55:12.469Z,2.25
2019-05-30T00:57:40.958Z,3.85
2019-05-30T01:00:09.936Z,2.98
2019-05-30T01:02:38.522Z,3.40
2019-05-30T01:05:08.232Z,2.85
2019-05-30T01:07:36.898Z,2.52
2019-05-30T01:10:07.795Z,2.67
2019-05-30T01:12:36.429Z,2.85
2019-05-30T01:15:07.476Z,2.70
2019-05-30T01:17:36.408Z,3.42
2019-05-30T01:20:07.466Z,5.70
2019-05-30T01:22:36.199Z,1.85
2019-05-30T01:25:07.838Z,3.27
2019-05-30T01:27:36.904Z,2.98
2019-05-30T01:30:07.983Z,2.83
2019-05-30T01:32:36.889Z,3.83
2019-05-30T01:35:08.117Z,3.98
2019-05-30T01:37:36.878Z,4.33
2019-05-30T01:40:08.783Z,2.45
2019-05-30T01:42:38.141Z,2.75
2019-05-30T01:45:08.524Z,3.08
2019-05-30T01:47:37.518Z,6.55
2019-05-30T01:50:10.163Z,2.77
2019-05-30T01:52:38.722Z,2.62
2019-05-30T01:55:09.256Z,4.58
2019-05-30T01:57:38.436Z,5.25
2019-05-30T02:00:20.773Z,3.17
2019-05-30T02:02:42.983Z,4.50
2019-05-30T02:05:12.424Z,2.27
2019-05-30T02:07:40.889Z,4.28
2019-05-30T02:10:10.420Z,3.37
2019-05-30T02:12:39.055Z,5.97
2019-05-30T02:15:09.832Z,4.00
2019-05-30T02:17:39.080Z,3.67
2019-05-30T02:20:08.258Z,3.27
2019-05-30T02:22:36.795Z,4.92
2019-05-30T02:25:08.256Z,3.72
2019-05-30T02:27:37.109Z,4.30
2019-05-30T02:30:12.412Z,3.10
2019-05-30T02:32:39.581Z,3.42
2019-05-30T02:35:10.276Z,3.95
2019-05-30T02:37:38.536Z,4.80
2019-05-30T02:40:13.612Z,4.83
2019-05-30T02:42:39.584Z,3.67
2019-05-30T02:45:11.307Z,4.67
2019-05-30T02:47:38.661Z,4.50
2019-05-30T02:50:10.993Z,4.40
2019-05-30T02:52:39.115Z,4.53
2019-05-30T02:55:10.770Z,2.65
2019-05-30T02:57:38.882Z,2.70
2019-05-30T03:00:15.347Z,3.08
2019-05-30T03:02:38.637Z,4.97
2019-05-30T03:05:11.603Z,4.53
2019-05-30T03:07:58.182Z,5.22
2019-05-30T03:10:27.206Z,2.02
2019-05-30T03:12:55.770Z,4.97
2019-05-30T03:15:24.477Z,3.90
2019-05-30T03:17:53.008Z,2.40
2019-05-30T03:20:23.448Z,3.17
2019-05-30T03:22:51.853Z,4.25
2019-05-30T03:25:20.471Z,3.98
2019-05-30T03:27:50.526Z,3.50
2019-05-30T03:30:27.661Z,3.05
2019-05-30T03:33:17.357Z,2.72
2019-05-30T03:35:28.813Z,3.65
2019-05-30T03:37:50.193Z,3.42
2019-05-30T03:40:20.642Z,4.00
2019-05-30T03:42:49.204Z,3.15
2019-05-30T03:45:17.823Z,2.75
2019-05-30T03:47:49.481Z,4.53
2019-05-30T03:50:19.678Z,4.33
2019-05-30T03:52:49.287Z,5.72
2019-05-30T03:55:20.102Z,6.85
2019-05-30T03:58:07.948Z,4.50
2019-05-30T04:00:58.448Z,4.45
2019-05-30T04:03:45.049Z,4.58
2019-05-30T04:06:31.398Z,4.42
2019-05-30T04:09:09.811Z,7.03
2019-05-30T04:11:42.164Z,6.85
2019-05-30T04:14:15.754Z,4.22
2019-05-30T04:16:44.033Z,6.45
2019-05-30T04:19:14.910Z,2.77
2019-05-30T04:21:42.733Z,5.78
2019-05-30T04:24:12.352Z,4.15
2019-05-30T04:26:41.447Z,4.10
2019-05-30T04:29:12.284Z,3.17
2019-05-30T04:31:41.068Z,4.87
2019-05-30T04:34:10.028Z,4.37
2019-05-30T04:36:38.903Z,2.95
2019-05-30T04:39:08.769Z,4.75
2019-05-30T04:41:37.952Z,4.22
2019-05-30T04:44:06.519Z,3.17
2019-05-30T04:46:35.068Z,4.62
2019-05-30T04:49:05.266Z,5.00
2019-05-30T04:51:33.769Z,4.30
2019-05-30T04:54:02.242Z,4.37
2019-05-30T04:56:30.708Z,3.75
2019-05-30T04:58:59.211Z,4.22
2019-05-30T05:01:27.777Z,4.85
2019-05-30T05:03:56.410Z,5.22
2019-05-30T05:06:24.948Z,4.15
2019-05-30T05:08:53.505Z,3.67
2019-05-30T05:11:25.113Z,4.42
2019-05-30T05:13:52.170Z,4.47
2019-05-30T05:16:30.792Z,4.53
2019-05-30T05:18:50.999Z,3.50
2019-05-30T05:21:19.615Z,3.47
2019-05-30T05:23:48.179Z,4.12
2019-05-30T05:26:17.422Z,5.95
2019-05-30T05:28:46.083Z,4.65
2019-05-30T05:31:14.605Z,6.92
2019-05-30T05:33:55.674Z,5.10
2019-05-30T05:36:13.285Z,6.33
2019-05-30T05:38:41.793Z,3.90
2019-05-30T05:41:10.407Z,5.53
2019-05-30T05:43:38.870Z,4.55
2019-05-30T05:46:07.360Z,5.97
2019-05-30T05:48:35.845Z,6.53
2019-05-30T05:51:04.500Z,4.80
2019-05-30T05:53:33.202Z,4.67
2019-05-30T05:56:01.740Z,5.90
2019-05-30T05:58:30.246Z,4.97
2019-05-30T06:00:58.783Z,7.62
2019-05-30T06:03:28.295Z,4.92
2019-05-30T06:05:56.925Z,7.45
2019-05-30T06:08:25.871Z,5.33
2019-05-30T06:10:54.603Z,6.25
2019-05-30T06:13:23.167Z,5.25
2019-05-30T06:15:51.686Z,6.08
2019-05-30T06:18:20.309Z,6.17
2019-05-30T06:20:48.951Z,6.40
2019-05-30T06:23:17.545Z,7.37
2019-05-30T06:25:46.095Z,5.97
2019-05-30T06:28:14.598Z,5.70
2019-05-30T06:30:43.133Z,6.03
2019-05-30T06:33:11.660Z,8.08
2019-05-30T06:35:40.159Z,5.92
2019-05-30T06:38:08.698Z,6.42
2019-05-30T06:40:37.216Z,10.45
2019-05-30T06:43:05.963Z,7.65
2019-05-30T06:45:34.446Z,6.85
2019-05-30T06:48:02.912Z,7.08
2019-05-30T06:50:31.572Z,7.97
2019-05-30T06:53:00.036Z,4.03
2019-05-30T06:55:31.327Z,10.45
2019-05-30T06:58:00.245Z,6.12
2019-05-30T07:00:29.868Z,9.10
2019-05-30T07:02:58.565Z,6.05
2019-05-30T07:05:29.613Z,8.25
2019-05-30T07:07:57.505Z,7.33
2019-05-30T07:10:26.812Z,7.00
2019-05-30T07:12:55.442Z,8.20
2019-05-30T07:15:25.562Z,7.75
2019-05-30T07:17:54.062Z,4.97
2019-05-30T07:20:23.486Z,7.80
2019-05-30T07:22:52.116Z,4.85
2019-05-30T07:25:20.823Z,6.62
2019-05-30T07:27:49.320Z,8.03
2019-05-30T07:30:18.441Z,7.12
2019-05-30T07:32:48.447Z,8.48
2019-05-30T07:35:17.356Z,8.83
2019-05-30T07:37:46.711Z,5.33
2019-05-30T07:40:19.368Z,6.45
2019-05-30T07:42:45.915Z,8.20
2019-05-30T07:45:15.435Z,9.05
2019-05-30T07:47:44.122Z,6.80
2019-05-30T07:50:12.728Z,9.90
2019-05-30T07:52:41.283Z,9.45
2019-05-30T07:55:10.927Z,6.00
2019-05-30T07:57:41.366Z,6.28
2019-05-30T08:00:14.391Z,6.65
2019-05-30T08:02:43.182Z,6.65
2019-05-30T08:05:23.409Z,5.10
2019-05-30T08:07:42.484Z,5.72
2019-05-30T08:10:11.845Z,8.08
2019-05-30T08:12:41.845Z,6.95
2019-05-30T08:15:11.460Z,8.78
2019-05-30T08:17:39.943Z,9.15
2019-05-30T08:20:10.551Z,8.25
2019-05-30T08:22:39.239Z,9.55
2019-05-30T08:25:08.625Z,9.80
2019-05-30T08:27:38.534Z,8.53
2019-05-30T08:30:09.938Z,7.97
2019-05-30T08:32:38.937Z,7.20
2019-05-30T08:35:08.616Z,7.78
2019-05-30T08:37:37.577Z,7.83
2019-05-30T08:40:07.955Z,8.25
2019-05-30T08:42:38.205Z,8.98
2019-05-30T08:45:09.947Z,7.00
2019-05-30T08:47:40.433Z,7.37
2019-05-30T08:50:10.484Z,9.00
2019-05-30T08:52:39.053Z,7.53
2019-05-30T08:55:08.555Z,9.35
2019-05-30T08:57:37.161Z,8.68
2019-05-30T09:00:11.050Z,8.40
2019-05-30T09:02:40.759Z,9.30
2019-05-30T09:05:11.248Z,6.50
2019-05-30T09:07:40.271Z,7.92
2019-05-30T09:10:10.526Z,7.62
2019-05-30T09:12:41.632Z,10.38
2019-05-30T09:15:11.851Z,8.15
2019-05-30T09:17:42.309Z,9.80
2019-05-30T09:20:11.915Z,10.48
2019-05-30T09:22:41.795Z,8.23
2019-05-30T09:25:12.085Z,10.65
2019-05-30T09:27:41.480Z,9.88
2019-05-30T09:30:13.667Z,9.13
2019-05-30T09:32:43.269Z,9.38
2019-05-30T09:35:13.051Z,10.53
2019-05-30T09:37:42.396Z,8.73
2019-05-30T09:40:12.881Z,7.08
2019-05-30T09:42:44.704Z,13.30
2019-05-30T09:45:15.892Z,7.33
2019-05-30T09:47:46.638Z,5.75
2019-05-30T09:50:15.221Z,10.58
2019-05-30T09:52:45.143Z,11.22
2019-05-30T09:55:14.594Z,9.03
2019-05-30T09:57:44.340Z,5.33
2019-05-30T10:00:16.455Z,5.85
2019-05-30T10:02:46.587Z,9.65
2019-05-30T10:05:16.122Z,9.13
2019-05-30T10:07:45.543Z,9.25
2019-05-30T10:10:16.096Z,8.23
2019-05-30T10:12:45.574Z,7.22
2019-05-30T10:15:15.648Z,10.23
2019-05-30T10:17:45.672Z,6.92
2019-05-30T10:20:15.249Z,8.88
2019-05-30T10:22:44.731Z,5.22
2019-05-30T10:25:14.107Z,9.40
2019-05-30T10:27:42.632Z,5.83
2019-05-30T10:30:12.163Z,10.30
2019-05-30T10:32:40.774Z,7.17
2019-05-30T10:35:10.747Z,9.93
2019-05-30T10:37:39.266Z,8.40
2019-05-30T10:40:09.588Z,12.53
2019-05-30T10:42:38.041Z,10.80
2019-05-30T10:45:08.569Z,9.23
2019-05-30T10:47:37.290Z,9.10
2019-05-30T10:50:09.912Z,9.65
2019-05-30T10:52:38.474Z,10.25
2019-05-30T10:55:10.494Z,8.88
2019-05-30T10:57:39.049Z,7.90
2019-05-30T11:00:16.828Z,7.50
2019-05-30T11:02:46.058Z,6.22
2019-05-30T11:05:16.312Z,7.35
2019-05-30T11:08:00.134Z,7.05
2019-05-30T11:10:30.087Z,8.95
2019-05-30T11:13:05.606Z,8.48
2019-05-30T11:15:28.969Z,8.50
2019-05-30T11:17:57.739Z,8.88
2019-05-30T11:20:26.442Z,8.95
2019-05-30T11:22:56.343Z,9.43
2019-05-30T11:25:25.054Z,6.72
2019-05-30T11:27:54.749Z,9.58
2019-05-30T11:30:24.213Z,9.05
2019-05-30T11:32:53.137Z,6.97
2019-05-30T11:35:21.851Z,7.90
2019-05-30T11:37:51.025Z,9.30
2019-05-30T11:40:20.185Z,6.35
2019-05-30T11:42:49.311Z,8.93
2019-05-30T11:45:18.341Z,7.87
2019-05-30T11:47:46.924Z,6.55
2019-05-30T11:50:16.809Z,8.55
2019-05-30T11:52:45.371Z,6.45
2019-05-30T11:55:14.204Z,8.23
2019-05-30T11:57:42.675Z,5.53
2019-05-30T12:00:14.355Z,6.05
2019-05-30T12:02:42.957Z,4.55
2019-05-30T12:05:13.816Z,6.55
2019-05-30T12:07:42.374Z,6.55
2019-05-30T12:10:11.774Z,9.33
2019-05-30T12:12:40.358Z,7.33
2019-05-30T12:15:09.840Z,7.33
2019-05-30T12:17:38.401Z,9.00
2019-05-30T12:20:07.776Z,8.48
2019-05-30T12:22:36.267Z,6.95
2019-05-30T12:25:06.789Z,8.95
2019-05-30T12:27:35.725Z,5.53
2019-05-30T12:30:07.410Z,9.23
2019-05-30T12:32:36.009Z,6.40
2019-05-30T12:35:07.589Z,8.13
2019-05-30T12:37:50.316Z,8.43
2019-05-30T12:40:09.240Z,7.12
2019-05-30T12:42:37.927Z,10.15
2019-05-30T12:45:08.168Z,7.53
2019-05-30T12:47:36.723Z,7.08
2019-05-30T12:50:09.656Z,9.55
2019-05-30T12:52:38.242Z,9.30
2019-05-30T12:55:09.887Z,7.53
2019-05-30T12:57:38.468Z,7.62
2019-05-30T13:00:16.914Z,8.83
2019-05-30T13:02:38.885Z,4.17
2019-05-30T13:05:08.116Z,5.28
2019-05-30T13:07:36.599Z,9.75
2019-05-30T13:10:08.212Z,8.38
2019-05-30T13:12:36.923Z,8.30
2019-05-30T13:15:09.669Z,6.70
2019-05-30T13:17:38.295Z,6.67
2019-05-30T13:20:09.046Z,6.28
2019-05-30T13:22:37.657Z,5.92
2019-05-30T13:25:11.450Z,6.70
2019-05-30T13:27:40.082Z,4.72
2019-05-30T13:30:10.296Z,6.05
2019-05-30T13:32:39.650Z,4.20
2019-05-30T13:35:08.982Z,5.60
2019-05-30T13:37:37.535Z,5.15
2019-05-30T13:40:23.690Z,7.60
2019-05-30T13:42:38.053Z,8.50
2019-05-30T13:45:11.065Z,6.30
2019-05-30T13:47:39.632Z,7.35
2019-05-30T13:50:13.352Z,13.13
2019-05-30T13:52:40.557Z,6.72
2019-05-30T13:55:10.838Z,10.10
2019-05-30T13:57:39.448Z,7.85
2019-05-30T14:00:13.220Z,7.42
2019-05-30T14:02:41.840Z,5.92
2019-05-30T14:05:11.070Z,4.58
2019-05-30T14:07:39.543Z,8.58
2019-05-30T14:10:10.524Z,6.83
2019-05-30T14:12:39.499Z,6.30
2019-05-30T14:15:13.927Z,3.95
2019-05-30T14:17:40.999Z,4.05
2019-05-30T14:20:11.785Z,5.08
2019-05-30T14:22:40.575Z,4.42
2019-05-30T14:25:10.037Z,4.50
2019-05-30T14:27:39.173Z,5.47
2019-05-30T14:30:11.037Z,3.80
2019-05-30T14:32:40.287Z,4.08
2019-05-30T14:35:11.551Z,5.60
2019-05-30T14:37:40.212Z,7.42
2019-05-30T14:40:12.919Z,8.38
2019-05-30T14:42:41.931Z,11.93
2019-05-30T14:45:14.554Z,10.25
2019-05-30T14:47:43.341Z,11.05
2019-05-30T14:50:13.563Z,8.58
2019-05-30T14:52:42.069Z,6.35
2019-05-30T14:55:11.129Z,4.50
2019-05-30T14:57:39.951Z,8.15
2019-05-30T15:00:11.373Z,4.83
2019-05-30T15:02:40.208Z,2.90
2019-05-30T15:05:09.386Z,3.20
2019-05-30T15:07:38.160Z,3.80
2019-05-30T15:10:08.808Z,3.80
2019-05-30T15:12:39.282Z,3.12
2019-05-30T15:15:12.636Z,3.33
2019-05-30T15:17:38.665Z,4.17
2019-05-30T15:20:10.319Z,1.90
2019-05-30T15:22:38.691Z,1.90
2019-05-30T15:25:08.027Z,2.30
2019-05-30T15:27:37.190Z,1.80
2019-05-30T15:30:08.359Z,4.75
2019-05-30T15:32:37.114Z,2.33
2019-05-30T15:35:06.885Z,1.90
2019-05-30T15:37:35.416Z,1.17
2019-05-30T15:40:06.722Z,1.42
2019-05-30T15:42:35.336Z,1.92
2019-05-30T15:45:07.748Z,1.42
2019-05-30T15:47:37.039Z,1.42
2019-05-30T15:50:10.541Z,1.60
2019-05-30T15:52:39.539Z,1.20
2019-05-30T15:55:09.349Z,1.00
2019-05-30T15:57:37.937Z,0.90
2019-05-30T16:00:09.960Z,2.00
2019-05-30T16:02:38.835Z,1.30
2019-05-30T16:05:08.641Z,2.83
2019-05-30T16:07:37.189Z,1.30
2019-05-30T16:10:07.494Z,3.50
2019-05-30T16:12:35.977Z,1.87
2019-05-30T16:15:07.344Z,1.00
2019-05-30T16:17:35.816Z,1.12
2019-05-30T16:20:06.548Z,2.08
2019-05-30T16:22:35.236Z,1.05
2019-05-30T16:25:06.099Z,2.10
2019-05-30T16:27:36.214Z,1.30
2019-05-30T16:30:06.901Z,1.82
2019-05-30T16:32:35.429Z,1.67
2019-05-30T16:35:06.113Z,1.77
2019-05-30T16:37:34.664Z,2.02
2019-05-30T16:40:06.725Z,2.62
2019-05-30T16:42:35.146Z,1.50
2019-05-30T16:45:05.146Z,3.60
2019-05-30T16:47:33.706Z,3.77
2019-05-30T16:50:02.284Z,1.32
2019-05-30T16:52:31.239Z,1.80
2019-05-30T16:54:59.821Z,1.25
2019-05-30T16:57:28.430Z,1.40
2019-05-30T16:59:56.904Z,4.72
2019-05-30T17:02:25.473Z,1.70
2019-05-30T17:04:54.022Z,1.80
2019-05-30T17:07:23.387Z,2.58
2019-05-30T17:09:52.245Z,1.30
2019-05-30T17:12:21.755Z,1.92
2019-05-30T17:14:50.498Z,3.10
2019-05-30T17:17:19.948Z,1.87
2019-05-30T17:19:48.770Z,2.25
2019-05-30T17:22:18.382Z,1.32
2019-05-30T17:24:47.444Z,1.22
2019-05-30T17:27:17.198Z,1.95
2019-05-30T17:29:45.872Z,2.45
2019-05-30T17:32:14.350Z,3.15
2019-05-30T17:34:42.896Z,1.20
2019-05-30T17:37:11.396Z,2.08
2019-05-30T17:39:39.865Z,2.95
2019-05-30T17:42:08.354Z,1.87
2019-05-30T17:44:36.842Z,2.55
2019-05-30T17:47:05.313Z,3.35
2019-05-30T17:49:33.797Z,2.22
2019-05-30T17:52:02.309Z,2.77
2019-05-30T17:54:30.773Z,3.42
2019-05-30T17:56:59.252Z,5.50
2019-05-30T17:59:28.555Z,1.50
2019-05-30T18:02:00.654Z,2.90
2019-05-30T18:04:28.625Z,2.58
2019-05-30T18:06:57.270Z,3.40
2019-05-30T18:09:27.084Z,2.40
2019-05-30T18:11:55.913Z,2.85
2019-05-30T18:14:25.085Z,2.05
2019-05-30T18:16:53.875Z,3.42
2019-05-30T18:19:23.354Z,2.12
2019-05-30T18:21:52.186Z,1.95
2019-05-30T18:24:21.425Z,2.55
2019-05-30T18:26:50.144Z,2.50
2019-05-30T18:29:19.104Z,2.27
2019-05-30T18:31:47.917Z,1.75
2019-05-30T18:34:16.520Z,3.60
2019-05-30T18:36:45.059Z,2.15
2019-05-30T18:39:13.561Z,1.72
2019-05-30T18:41:42.053Z,2.90
2019-05-30T18:44:10.592Z,3.35
2019-05-30T18:46:39.205Z,6.70
2019-05-30T18:49:07.868Z,3.55
2019-05-30T18:51:36.728Z,3.05
2019-05-30T18:54:05.480Z,4.67
2019-05-30T18:56:33.993Z,3.22
2019-05-30T18:59:02.483Z,4.58
2019-05-30T19:01:31.668Z,1.95
2019-05-30T19:04:00.677Z,3.27
2019-05-30T19:06:29.949Z,2.55
2019-05-30T19:08:58.672Z,3.30
2019-05-30T19:11:32.716Z,3.42
2019-05-30T19:13:57.368Z,3.45
2019-05-30T19:16:26.347Z,4.25
2019-05-30T19:18:55.021Z,2.10
2019-05-30T19:21:23.589Z,3.35
2019-05-30T19:23:52.230Z,4.42
2019-05-30T19:26:20.709Z,2.92
2019-05-30T19:28:49.247Z,2.20
2019-05-30T19:31:17.817Z,3.22
2019-05-30T19:33:46.357Z,3.60
2019-05-30T19:36:14.943Z,4.83
2019-05-30T19:38:43.478Z,3.12
2019-05-30T19:41:11.952Z,3.20
2019-05-30T19:43:40.584Z,3.17
2019-05-30T19:46:09.192Z,3.80
2019-05-30T19:48:38.537Z,3.47
2019-05-30T19:51:07.209Z,3.97
2019-05-30T19:53:36.918Z,4.40
2019-05-30T19:56:05.809Z,5.63
2019-05-30T19:58:35.547Z,2.85
2019-05-30T20:01:04.308Z,2.67
2019-05-30T20:03:40.851Z,3.00
2019-05-30T20:06:03.042Z,6.83
2019-05-30T20:08:47.892Z,2.77
2019-05-30T20:11:01.843Z,3.52
2019-05-30T20:13:31.067Z,3.87
2019-05-30T20:15:59.694Z,3.85
2019-05-30T20:18:28.218Z,4.33
2019-05-30T20:20:58.087Z,2.52
2019-05-30T20:23:27.275Z,2.10
2019-05-30T20:25:55.893Z,4.30
2019-05-30T20:28:24.368Z,5.00
2019-05-30T20:30:52.966Z,3.85
2019-05-30T20:33:23.117Z,2.87
2019-05-30T20:35:51.612Z,3.25
2019-05-30T20:38:20.122Z,4.75
2019-05-30T20:40:48.588Z,3.87
2019-05-30T20:43:17.171Z,5.00
2019-05-30T20:45:48.898Z,2.50
2019-05-30T20:48:15.911Z,4.10
2019-05-30T20:50:44.414Z,3.95
2019-05-30T20:53:13.031Z,4.22
2019-05-30T20:55:42.546Z,4.40
2019-05-30T20:58:11.174Z,5.20
2019-05-30T21:00:42.010Z,2.45
2019-05-30T21:03:10.649Z,5.03
2019-05-30T21:05:41.985Z,4.37
2019-05-30T21:08:10.848Z,6.05
2019-05-30T21:10:41.133Z,2.77
2019-05-30T21:13:10.093Z,3.42
2019-05-30T21:15:39.637Z,4.78
2019-05-30T21:18:08.494Z,7.67
2019-05-30T21:20:37.814Z,3.17
2019-05-30T21:23:06.683Z,4.17
2019-05-30T21:25:37.091Z,3.98
2019-05-30T21:28:05.484Z,3.83
2019-05-30T21:30:34.046Z,3.42
2019-05-30T21:33:02.669Z,7.65
2019-05-30T21:35:31.248Z,5.47
2019-05-30T21:37:59.763Z,3.00
2019-05-30T21:40:28.240Z,3.98
2019-05-30T21:43:05.936Z,6.25
2019-05-30T21:45:27.022Z,3.85
2019-05-30T21:47:55.558Z,5.55
2019-05-30T21:50:24.290Z,3.67
2019-05-30T21:52:52.898Z,4.60
2019-05-30T21:55:21.465Z,3.92
2019-05-30T21:57:50.141Z,3.72
2019-05-30T22:00:38.767Z,4.60
2019-05-30T22:03:07.377Z,5.72
2019-05-30T22:05:35.990Z,5.47
2019-05-30T22:08:04.722Z,3.40
2019-05-30T22:10:33.217Z,3.47
2019-05-30T22:13:09.559Z,7.55
2019-05-30T22:15:32.062Z,5.53
2019-05-30T22:18:00.754Z,5.70
2019-05-30T22:20:29.487Z,3.27
2019-05-30T22:22:57.986Z,5.08
2019-05-30T22:25:26.462Z,2.58
2019-05-30T22:27:55.062Z,3.22
2019-05-30T22:30:23.635Z,4.62
2019-05-30T22:32:52.865Z,3.55
2019-05-30T22:35:21.478Z,5.62
2019-05-30T22:37:50.997Z,3.87
2019-05-30T22:40:39.041Z,3.67
2019-05-30T22:43:07.515Z,2.40
2019-05-30T22:45:36.158Z,4.37
2019-05-30T22:48:05.049Z,4.53
2019-05-30T22:50:34.562Z,3.85
2019-05-30T22:53:03.184Z,3.98
2019-05-30T22:55:31.726Z,4.53
2019-05-30T22:58:00.264Z,3.37
2019-05-30T23:00:28.854Z,4.08
2019-05-30T23:02:57.436Z,4.28
2019-05-30T23:05:25.961Z,2.62
2019-05-30T23:07:55.557Z,4.53
2019-05-30T23:10:24.544Z,2.10
2019-05-30T23:13:12.380Z,4.83
2019-05-30T23:15:41.012Z,4.78
2019-05-30T23:18:09.497Z,2.62
2019-05-30T23:20:37.995Z,3.22
2019-05-30T23:23:06.588Z,2.72
2019-05-30T23:25:35.060Z,2.90
2019-05-30T23:28:03.631Z,4.35
2019-05-30T23:30:32.293Z,3.95
2019-05-30T23:33:00.772Z,3.05
2019-05-30T23:35:29.264Z,2.08
2019-05-30T23:37:58.853Z,1.60
2019-05-30T23:40:27.385Z,6.45
2019-05-30T23:42:57.137Z,3.37
2019-05-30T23:45:26.106Z,6.85
2019-05-30T23:47:55.557Z,2.87
2019-05-30T23:50:24.448Z,2.12
2019-05-30T23:52:54.088Z,5.55
2019-05-30T23:55:22.739Z,2.87
2019-05-30T23:57:52.395Z,4.35
